createdAt,value
2023-02-16T00:00:53.267Z,-0.27
2023-02-16T00:01:53.298Z,-0.30
2023-02-16T00:02:53.225Z,-0.31
2023-02-16T00:03:53.335Z,-0.36
2023-02-16T00:04:53.238Z,-0.36
2023-02-16T00:05:53.208Z,-0.39
2023-02-16T00:06:53.186Z,-0.39
2023-02-16T00:07:53.184Z,-0.42
2023-02-16T00:08:53.156Z,-0.42
2023-02-16T00:09:53.188Z,-0.44
2023-02-16T00:10:53.133Z,-0.44
2023-02-16T00:11:53.163Z,-0.42
2023-02-16T00:12:53.108Z,-0.44
2023-02-16T00:13:53.292Z,-0.45
2023-02-16T00:14:53.086Z,-0.45
2023-02-16T00:15:53.134Z,-0.45
2023-02-16T00:16:53.088Z,-0.47
2023-02-16T00:17:53.062Z,-0.48
2023-02-16T00:18:53.043Z,-0.47
2023-02-16T00:19:53.058Z,-0.50
2023-02-16T00:20:53.023Z,-0.52
2023-02-16T00:21:52.997Z,-0.57
2023-02-16T00:22:52.975Z,-0.59
2023-02-16T00:23:52.971Z,-0.65
2023-02-16T00:24:52.963Z,-0.68
2023-02-16T00:25:52.978Z,-0.68
2023-02-16T00:26:52.927Z,-0.70
2023-02-16T00:27:52.905Z,-0.72
2023-02-16T00:28:52.903Z,-0.73
2023-02-16T00:29:53.012Z,-0.77
2023-02-16T00:30:53.052Z,-0.78
2023-02-16T00:31:52.982Z,-0.78
2023-02-16T00:32:52.926Z,-0.80
2023-02-16T00:33:52.852Z,-0.83
2023-02-16T00:34:52.835Z,-0.86
2023-02-16T00:35:52.859Z,-0.87
2023-02-16T00:36:52.799Z,-0.89
2023-02-16T00:37:52.804Z,-0.91
2023-02-16T00:38:52.779Z,-0.94
2023-02-16T00:39:52.786Z,-0.94
2023-02-16T00:40:52.805Z,-0.97
2023-02-16T00:41:52.751Z,-0.95
2023-02-16T00:42:52.740Z,-0.95
2023-02-16T00:43:52.720Z,-0.97
2023-02-16T00:44:52.731Z,-0.97
2023-02-16T00:45:52.748Z,-0.99
2023-02-16T00:46:52.693Z,-1.00
2023-02-16T00:47:52.705Z,-0.99
2023-02-16T00:48:52.650Z,-0.99
2023-02-16T00:49:52.673Z,-1.00
2023-02-16T00:50:52.653Z,-1.03
2023-02-16T00:51:52.641Z,-1.03
2023-02-16T00:52:52.614Z,-1.02
2023-02-16T00:53:52.599Z,-1.03
2023-02-16T00:54:52.605Z,-1.03
2023-02-16T00:55:52.595Z,-1.03
2023-02-16T00:56:52.570Z,-1.06
2023-02-16T00:57:52.562Z,-1.07
2023-02-16T00:58:52.557Z,-1.10
2023-02-16T00:59:52.521Z,-1.10
2023-02-16T01:00:52.527Z,-1.13
2023-02-16T01:01:52.566Z,-1.15
2023-02-16T01:02:52.484Z,-1.15
2023-02-16T01:03:52.492Z,-1.15
2023-02-16T01:04:52.493Z,-1.18
2023-02-16T01:05:52.459Z,-1.20
2023-02-16T01:06:52.461Z,-1.18
2023-02-16T01:07:52.452Z,-1.21
2023-02-16T01:08:52.401Z,-1.20
2023-02-16T01:09:52.394Z,-1.23
2023-02-16T01:10:52.389Z,-1.21
2023-02-16T01:11:52.414Z,-1.23
2023-02-16T01:12:52.352Z,-1.23
2023-02-16T01:13:52.377Z,-1.23
2023-02-16T01:14:52.341Z,-1.24
2023-02-16T01:15:52.354Z,-1.24
2023-02-16T01:16:52.308Z,-1.24
2023-02-16T01:17:52.306Z,-1.24
2023-02-16T01:18:52.258Z,-1.24
2023-02-16T01:19:52.275Z,-1.24
2023-02-16T01:20:52.287Z,-1.24
2023-02-16T01:21:52.255Z,-1.24
2023-02-16T01:22:52.218Z,-1.24
2023-02-16T01:23:52.217Z,-1.25
2023-02-16T01:24:52.201Z,-1.24
2023-02-16T01:25:52.227Z,-1.24
2023-02-16T01:26:52.158Z,-1.25
2023-02-16T01:27:52.179Z,-1.27
2023-02-16T01:28:52.172Z,-1.25
2023-02-16T01:29:52.182Z,-1.27
2023-02-16T01:30:52.289Z,-1.27
2023-02-16T01:31:52.237Z,-1.28
2023-02-16T01:32:52.091Z,-1.27
2023-02-16T01:33:52.085Z,-1.28
2023-02-16T01:34:52.069Z,-1.30
2023-02-16T01:35:52.122Z,-1.30
2023-02-16T01:36:52.048Z,-1.31
2023-02-16T01:37:52.038Z,-1.31
2023-02-16T01:38:52.029Z,-1.33
2023-02-16T01:39:51.998Z,-1.33
2023-02-16T01:40:51.997Z,-1.36
2023-02-16T01:41:52.027Z,-1.38
2023-02-16T01:42:51.981Z,-1.39
2023-02-16T01:43:51.959Z,-1.42
2023-02-16T01:44:51.946Z,-1.42
2023-02-16T01:45:51.948Z,-1.45
2023-02-16T01:46:52.069Z,-1.45
2023-02-16T01:47:51.908Z,-1.43
2023-02-16T01:48:51.914Z,-1.43
2023-02-16T01:49:51.889Z,-1.41
2023-02-16T01:50:51.889Z,-1.42
2023-02-16T01:51:51.861Z,-1.42
2023-02-16T01:52:51.860Z,-1.45
2023-02-16T01:53:51.844Z,-1.45
2023-02-16T01:54:51.826Z,-1.46
2023-02-16T01:55:51.828Z,-1.46
2023-02-16T01:56:51.801Z,-1.48
2023-02-16T01:57:51.778Z,-1.46
2023-02-16T01:58:51.789Z,-1.46
2023-02-16T01:59:51.810Z,-1.48
2023-02-16T02:00:51.783Z,-1.49
2023-02-16T02:01:51.804Z,-1.51
2023-02-16T02:02:51.757Z,-1.51
2023-02-16T02:03:51.709Z,-1.54
2023-02-16T02:04:51.703Z,-1.56
2023-02-16T02:05:51.697Z,-1.57
2023-02-16T02:06:51.676Z,-1.56
2023-02-16T02:07:51.661Z,-1.56
2023-02-16T02:08:51.701Z,-1.57
2023-02-16T02:09:51.639Z,-1.57
2023-02-16T02:10:51.640Z,-1.56
2023-02-16T02:11:51.591Z,-1.57
2023-02-16T02:12:51.619Z,-1.57
2023-02-16T02:13:51.609Z,-1.57
2023-02-16T02:14:51.593Z,-1.57
2023-02-16T02:15:51.603Z,-1.56
2023-02-16T02:16:51.548Z,-1.54
2023-02-16T02:17:51.528Z,-1.56
2023-02-16T02:18:51.554Z,-1.57
2023-02-16T02:19:51.513Z,-1.59
2023-02-16T02:20:51.495Z,-1.60
2023-02-16T02:21:51.478Z,-1.62
2023-02-16T02:22:51.491Z,-1.63
2023-02-16T02:23:51.457Z,-1.63
2023-02-16T02:24:51.459Z,-1.64
2023-02-16T02:25:51.431Z,-1.64
2023-02-16T02:26:51.431Z,-1.64
2023-02-16T02:27:51.409Z,-1.67
2023-02-16T02:28:51.415Z,-1.67
2023-02-16T02:29:51.510Z,-1.67
2023-02-16T02:30:51.437Z,-1.69
2023-02-16T02:31:51.433Z,-1.70
2023-02-16T02:32:51.365Z,-1.70
2023-02-16T02:33:51.328Z,-1.70
2023-02-16T02:34:51.332Z,-1.74
2023-02-16T02:35:51.320Z,-1.72
2023-02-16T02:36:51.298Z,-1.72
2023-02-16T02:37:51.289Z,-1.70
2023-02-16T02:38:51.273Z,-1.70
2023-02-16T02:39:51.261Z,-1.67
2023-02-16T02:40:51.258Z,-1.67
2023-02-16T02:41:51.239Z,-1.70
2023-02-16T02:42:51.228Z,-1.72
2023-02-16T02:43:51.199Z,-1.72
2023-02-16T02:44:51.216Z,-1.72
2023-02-16T02:45:51.189Z,-1.74
2023-02-16T02:46:51.238Z,-1.75
2023-02-16T02:47:51.160Z,-1.77
2023-02-16T02:48:51.153Z,-1.77
2023-02-16T02:49:51.130Z,-1.78
2023-02-16T02:50:51.132Z,-1.77
2023-02-16T02:51:51.112Z,-1.75
2023-02-16T02:52:51.098Z,-1.75
2023-02-16T02:53:51.086Z,-1.74
2023-02-16T02:54:51.081Z,-1.74
2023-02-16T02:55:51.078Z,-1.75
2023-02-16T02:56:51.058Z,-1.75
2023-02-16T02:57:51.028Z,-1.75
2023-02-16T02:58:51.028Z,-1.77
2023-02-16T02:59:51.012Z,-1.75
2023-02-16T03:00:51.083Z,-1.75
2023-02-16T03:01:51.030Z,-1.75
2023-02-16T03:02:50.991Z,-1.77
2023-02-16T03:03:50.971Z,-1.77
2023-02-16T03:04:50.944Z,-1.77
2023-02-16T03:05:50.970Z,-1.78
2023-02-16T03:06:50.918Z,-1.81
2023-02-16T03:07:50.911Z,-1.82
2023-02-16T03:08:50.900Z,-1.80
2023-02-16T03:09:50.882Z,-1.77
2023-02-16T03:10:50.886Z,-1.75
2023-02-16T03:11:50.863Z,-1.77
2023-02-16T03:12:50.847Z,-1.77
2023-02-16T03:13:50.823Z,-1.77
2023-02-16T03:14:50.828Z,-1.81
2023-02-16T03:15:50.812Z,-1.81
2023-02-16T03:16:50.788Z,-1.80
2023-02-16T03:17:50.778Z,-1.82
2023-02-16T03:18:50.768Z,-1.84
2023-02-16T03:19:50.771Z,-1.81
2023-02-16T03:20:50.756Z,-1.80
2023-02-16T03:21:50.750Z,-1.81
2023-02-16T03:22:50.727Z,-1.81
2023-02-16T03:23:50.698Z,-1.81
2023-02-16T03:24:50.702Z,-1.82
2023-02-16T03:25:50.720Z,-1.81
2023-02-16T03:26:50.676Z,-1.82
2023-02-16T03:27:50.646Z,-1.84
2023-02-16T03:28:50.648Z,-1.85
2023-02-16T03:29:50.628Z,-1.84
2023-02-16T03:30:50.730Z,-1.84
2023-02-16T03:31:50.704Z,-1.85
2023-02-16T03:32:50.590Z,-1.85
2023-02-16T03:33:50.585Z,-1.88
2023-02-16T03:34:50.565Z,-1.87
2023-02-16T03:35:50.564Z,-1.87
2023-02-16T03:36:50.768Z,-1.90
2023-02-16T03:37:50.567Z,-1.90
2023-02-16T03:38:50.767Z,-1.88
2023-02-16T03:39:50.544Z,-1.87
2023-02-16T03:40:50.492Z,-1.88
2023-02-16T03:41:50.494Z,-1.87
2023-02-16T03:42:50.457Z,-1.88
2023-02-16T03:43:50.444Z,-1.88
2023-02-16T03:44:50.440Z,-1.88
2023-02-16T03:45:50.451Z,-1.88
2023-02-16T03:46:50.426Z,-1.88
2023-02-16T03:47:50.430Z,-1.88
2023-02-16T03:48:50.424Z,-1.87
2023-02-16T03:49:50.373Z,-1.87
2023-02-16T04:03:13.283Z,-1.80
2023-02-16T04:04:13.299Z,-1.82
2023-02-16T04:05:13.245Z,-1.82
2023-02-16T04:06:13.209Z,-1.81
2023-02-16T04:07:13.228Z,-1.82
2023-02-16T04:08:13.207Z,-1.82
2023-02-16T04:09:13.211Z,-1.84
2023-02-16T04:10:13.198Z,-1.80
2023-02-16T04:11:20.688Z,-1.81
2023-02-16T04:12:13.148Z,-1.81
2023-02-16T04:13:13.145Z,-1.84
2023-02-16T04:14:13.155Z,-1.84
2023-02-16T04:15:13.108Z,-1.85
2023-02-16T04:16:13.105Z,-1.88
2023-02-16T04:17:13.114Z,-1.90
2023-02-16T04:18:13.070Z,-1.90
2023-02-16T04:19:13.062Z,-1.90
2023-02-16T04:20:13.050Z,-1.92
2023-02-16T04:21:13.043Z,-1.88
2023-02-16T04:22:13.029Z,-1.90
2023-02-16T04:23:13.009Z,-1.88
2023-02-16T04:24:13.002Z,-1.92
2023-02-16T04:25:13.012Z,-1.93
2023-02-16T04:26:13.039Z,-1.95
2023-02-16T04:27:12.967Z,-1.96
2023-02-16T04:28:12.956Z,-1.99
2023-02-16T04:29:12.930Z,-2.02
2023-02-16T04:30:12.969Z,-2.05
2023-02-16T04:31:13.093Z,-2.06
2023-02-16T04:32:12.966Z,-2.10
2023-02-16T04:33:12.885Z,-2.13
2023-02-16T04:34:12.869Z,-2.14
2023-02-16T04:35:12.873Z,-2.17
2023-02-16T04:36:12.836Z,-2.16
2023-02-16T04:37:12.867Z,-2.14
2023-02-16T04:38:12.823Z,-2.13
2023-02-16T04:39:12.815Z,-2.16
2023-02-16T04:40:12.815Z,-2.14
2023-02-16T04:41:12.796Z,-2.16
2023-02-16T04:42:12.763Z,-2.16
2023-02-16T04:43:12.765Z,-2.16
2023-02-16T04:44:12.734Z,-2.14
2023-02-16T04:45:12.723Z,-2.14
2023-02-16T04:46:12.771Z,-2.16
2023-02-16T04:47:12.705Z,-2.16
2023-02-16T04:48:12.717Z,-2.17
2023-02-16T04:49:12.684Z,-2.16
2023-02-16T04:50:12.654Z,-2.14
2023-02-16T04:51:12.693Z,-2.11
2023-02-16T04:52:12.657Z,-2.08
2023-02-16T04:53:12.679Z,-2.08
2023-02-16T04:54:12.644Z,-2.08
2023-02-16T04:55:12.623Z,-2.11
2023-02-16T04:56:12.609Z,-2.11
2023-02-16T04:57:12.594Z,-2.14
2023-02-16T04:58:12.583Z,-2.18
2023-02-16T04:59:12.583Z,-2.18
2023-02-16T05:00:12.562Z,-2.21
2023-02-16T05:01:12.594Z,-2.23
2023-02-16T05:02:12.525Z,-2.24
2023-02-16T05:03:12.544Z,-2.23
2023-02-16T05:04:12.566Z,-2.23
2023-02-16T05:05:12.528Z,-2.21
2023-02-16T05:06:12.487Z,-2.21
2023-02-16T05:07:12.460Z,-2.23
2023-02-16T05:08:12.462Z,-2.24
2023-02-16T05:09:12.440Z,-2.21
2023-02-16T05:10:12.418Z,-2.21
2023-02-16T05:11:12.417Z,-2.26
2023-02-16T05:12:12.403Z,-2.26
2023-02-16T05:13:12.393Z,-2.28
2023-02-16T05:14:12.388Z,-2.29
2023-02-16T05:15:12.402Z,-2.28
2023-02-16T05:16:12.374Z,-2.26
2023-02-16T05:17:12.347Z,-2.26
2023-02-16T05:18:12.362Z,-2.26
2023-02-16T05:19:12.497Z,-2.24
2023-02-16T05:20:12.296Z,-2.23
2023-02-16T05:21:12.273Z,-2.23
2023-02-16T05:22:12.289Z,-2.23
2023-02-16T05:23:12.288Z,-2.23
2023-02-16T05:24:12.259Z,-2.26
2023-02-16T05:25:12.253Z,-2.28
2023-02-16T05:26:12.212Z,-2.32
2023-02-16T05:27:12.216Z,-2.33
2023-02-16T05:28:12.272Z,-2.33
2023-02-16T05:29:12.196Z,-2.38
2023-02-16T05:30:12.215Z,-2.38
2023-02-16T05:31:12.261Z,-2.39
2023-02-16T05:32:12.228Z,-2.40
2023-02-16T05:33:12.144Z,-2.40
2023-02-16T05:34:12.152Z,-2.40
2023-02-16T05:35:12.114Z,-2.40
2023-02-16T05:36:12.133Z,-2.42
2023-02-16T05:37:12.102Z,-2.43
2023-02-16T05:38:12.111Z,-2.43
2023-02-16T05:39:12.066Z,-2.42
2023-02-16T05:40:12.065Z,-2.45
2023-02-16T05:41:12.037Z,-2.43
2023-02-16T05:42:12.048Z,-2.45
2023-02-16T05:43:12.030Z,-2.45
2023-02-16T05:44:12.007Z,-2.45
2023-02-16T05:45:12.010Z,-2.43
2023-02-16T05:46:11.987Z,-2.42
2023-02-16T05:47:11.962Z,-2.40
2023-02-16T05:48:11.977Z,-2.38
2023-02-16T05:49:11.957Z,-2.38
2023-02-16T05:50:11.951Z,-2.36
2023-02-16T05:51:11.920Z,-2.33
2023-02-16T05:52:11.905Z,-2.33
2023-02-16T05:53:11.923Z,-2.29
2023-02-16T05:54:11.879Z,-2.28
2023-02-16T05:55:11.962Z,-2.24
2023-02-16T05:56:11.859Z,-2.23
2023-02-16T05:57:11.864Z,-2.21
2023-02-16T05:58:11.849Z,-2.18
2023-02-16T05:59:11.859Z,-2.18
2023-02-16T06:00:11.790Z,-2.20
2023-02-16T06:01:11.788Z,-2.17
2023-02-16T06:02:11.778Z,-2.17
2023-02-16T06:03:11.761Z,-2.17
2023-02-16T06:04:11.773Z,-2.17
2023-02-16T06:05:11.766Z,-2.17
2023-02-16T06:06:11.773Z,-2.20
2023-02-16T06:07:14.646Z,-2.21
2023-02-16T06:08:11.713Z,-2.24
2023-02-16T06:09:11.726Z,-2.26
2023-02-16T06:10:11.679Z,-2.28
2023-02-16T06:11:11.668Z,-2.28
2023-02-16T06:12:11.648Z,-2.28
2023-02-16T06:13:11.651Z,-2.28
2023-02-16T06:14:11.647Z,-2.26
2023-02-16T06:15:11.650Z,-2.26
2023-02-16T06:16:11.650Z,-2.28
2023-02-16T06:17:11.598Z,-2.26
2023-02-16T06:18:11.575Z,-2.26
2023-02-16T06:19:11.572Z,-2.21
2023-02-16T06:20:11.578Z,-2.21
2023-02-16T06:21:11.540Z,-2.20
2023-02-16T06:22:11.568Z,-2.20
2023-02-16T06:23:11.523Z,-2.21
2023-02-16T06:24:11.521Z,-2.21
2023-02-16T06:25:11.490Z,-2.21
2023-02-16T06:26:11.469Z,-2.23
2023-02-16T06:27:11.470Z,-2.23
2023-02-16T06:28:11.441Z,-2.23
2023-02-16T06:29:11.450Z,-2.23
2023-02-16T06:30:11.492Z,-2.21
2023-02-16T06:31:11.507Z,-2.21
2023-02-16T06:32:11.518Z,-2.20
2023-02-16T06:33:11.378Z,-2.20
2023-02-16T06:34:11.407Z,-2.16
2023-02-16T06:35:11.387Z,-2.13
2023-02-16T06:36:11.357Z,-2.10
2023-02-16T06:37:11.356Z,-2.06
2023-02-16T06:38:11.360Z,-2.08
2023-02-16T06:39:11.345Z,-2.10
2023-02-16T06:40:11.297Z,-2.10
2023-02-16T06:41:11.276Z,-2.11
2023-02-16T06:42:11.288Z,-2.10
2023-02-16T06:43:11.257Z,-2.13
2023-02-16T06:44:11.274Z,-2.16
2023-02-16T06:45:11.227Z,-2.16
2023-02-16T06:46:11.270Z,-2.17
2023-02-16T06:47:11.221Z,-2.17
2023-02-16T06:48:11.206Z,-2.17
2023-02-16T06:49:11.202Z,-2.13
2023-02-16T06:50:11.189Z,-2.11
2023-02-16T06:51:11.166Z,-2.06
2023-02-16T06:52:11.152Z,-2.06
2023-02-16T06:53:11.127Z,-2.06
2023-02-16T06:54:11.141Z,-2.06
2023-02-16T06:55:11.126Z,-2.05
2023-02-16T06:56:11.099Z,-2.05
2023-02-16T06:57:11.097Z,-2.03
2023-02-16T06:58:11.088Z,-2.02
2023-02-16T06:59:11.054Z,-2.03
2023-02-16T07:00:11.066Z,-2.03
2023-02-16T07:01:11.097Z,-2.02
2023-02-16T07:02:11.033Z,-2.00
2023-02-16T07:03:11.065Z,-1.99
2023-02-16T07:04:11.036Z,-1.98
2023-02-16T07:05:10.994Z,-1.93
2023-02-16T07:06:10.999Z,-1.92
2023-02-16T07:07:10.967Z,-1.90
2023-02-16T07:08:10.956Z,-1.87
2023-02-16T07:09:12.743Z,-1.84
2023-02-16T07:10:10.945Z,-1.82
2023-02-16T07:11:10.913Z,-1.80
2023-02-16T07:12:10.895Z,-1.80
2023-02-16T07:13:10.901Z,-1.78
2023-02-16T07:14:10.869Z,-1.75
2023-02-16T07:15:10.906Z,-1.75
2023-02-16T07:16:10.892Z,-1.77
2023-02-16T07:17:10.835Z,-1.74
2023-02-16T07:18:10.828Z,-1.74
2023-02-16T07:19:10.800Z,-1.72
2023-02-16T07:20:10.824Z,-1.69
2023-02-16T07:21:10.784Z,-1.67
2023-02-16T07:22:10.782Z,-1.64
2023-02-16T07:23:10.756Z,-1.62
2023-02-16T07:24:10.746Z,-1.59
2023-02-16T07:25:10.757Z,-1.56
2023-02-16T07:26:10.723Z,-1.53
2023-02-16T07:27:10.705Z,-1.48
2023-02-16T07:28:10.717Z,-1.45
2023-02-16T07:29:10.677Z,-1.45
2023-02-16T07:30:10.702Z,-1.42
2023-02-16T07:31:10.817Z,-1.39
2023-02-16T07:32:10.704Z,-1.36
2023-02-16T07:33:10.651Z,-1.30
2023-02-16T07:34:10.635Z,-1.25
2023-02-16T07:35:10.615Z,-1.23
2023-02-16T07:36:10.646Z,-1.21
2023-02-16T07:37:10.573Z,-1.18
2023-02-16T07:38:10.571Z,-1.17
2023-02-16T07:39:10.563Z,-1.13
2023-02-16T07:40:10.587Z,-1.13
2023-02-16T07:41:11.093Z,-1.10
2023-02-16T07:42:10.521Z,-1.07
2023-02-16T07:43:10.511Z,-1.03
2023-02-16T07:44:10.522Z,-0.99
2023-02-16T07:45:10.480Z,-0.94
2023-02-16T07:46:10.531Z,-0.89
2023-02-16T07:47:10.452Z,-0.84
2023-02-16T07:48:10.432Z,-0.83
2023-02-16T07:49:10.457Z,-0.78
2023-02-16T07:50:10.412Z,-0.75
2023-02-16T07:51:10.406Z,-0.69
2023-02-16T07:52:10.388Z,-0.63
2023-02-16T07:53:12.808Z,-0.60
2023-02-16T07:54:10.370Z,-0.57
2023-02-16T07:55:10.372Z,-0.55
2023-02-16T07:56:10.330Z,-0.52
2023-02-16T07:57:10.362Z,-0.50
2023-02-16T07:58:10.325Z,-0.44
2023-02-16T07:59:10.302Z,-0.39
2023-02-16T08:00:10.304Z,-0.34
2023-02-16T08:01:10.309Z,-0.30
2023-02-16T08:02:10.399Z,-0.27
2023-02-16T08:03:10.420Z,-0.27
2023-02-16T08:04:10.239Z,-0.26
2023-02-16T08:05:10.228Z,-0.23
2023-02-16T08:06:10.239Z,-0.18
2023-02-16T08:07:10.191Z,-0.13
2023-02-16T08:08:10.201Z,-0.11
2023-02-16T08:09:10.177Z,-0.08
2023-02-16T08:10:10.177Z,-0.06
2023-02-16T08:11:10.204Z,-0.04
2023-02-16T08:12:10.157Z,0.02
2023-02-16T08:13:10.158Z,0.03
2023-02-16T08:14:10.114Z,0.05
2023-02-16T08:15:10.093Z,0.03
2023-02-16T08:16:10.158Z,0.07
2023-02-16T08:17:10.200Z,0.10
2023-02-16T08:18:10.072Z,0.10
2023-02-16T08:19:10.151Z,0.15
2023-02-16T08:20:10.043Z,0.18
2023-02-16T08:21:10.034Z,0.24
2023-02-16T08:22:10.029Z,0.27
2023-02-16T08:23:10.025Z,0.30
2023-02-16T08:24:09.986Z,0.34
2023-02-16T08:25:09.975Z,0.38
2023-02-16T08:26:09.999Z,0.41
2023-02-16T08:27:09.976Z,0.46
2023-02-16T08:28:09.975Z,0.49
2023-02-16T08:29:09.924Z,0.53
2023-02-16T08:30:10.001Z,0.60
2023-02-16T08:31:09.953Z,0.64
2023-02-16T08:32:09.925Z,0.70
2023-02-16T08:33:09.877Z,0.78
2023-02-16T08:34:09.915Z,0.82
2023-02-16T08:35:09.844Z,0.89
2023-02-16T08:36:09.870Z,0.97
2023-02-16T08:37:09.837Z,1.04
2023-02-16T08:38:09.807Z,1.10
2023-02-16T08:39:09.812Z,1.18
2023-02-16T08:40:09.803Z,1.25
2023-02-16T08:41:09.782Z,1.34
2023-02-16T08:42:09.758Z,1.40
2023-02-16T08:43:09.787Z,1.44
2023-02-16T08:44:09.742Z,1.52
2023-02-16T08:45:09.709Z,1.57
2023-02-16T08:46:09.748Z,1.64
2023-02-16T08:47:09.729Z,1.72
2023-02-16T08:48:09.719Z,1.79
2023-02-16T08:49:09.719Z,1.87
2023-02-16T08:50:09.659Z,1.94
2023-02-16T08:51:09.660Z,2.04
2023-02-16T08:52:09.637Z,2.13
2023-02-16T08:53:09.654Z,2.22
2023-02-16T08:54:09.626Z,2.31
2023-02-16T08:55:09.575Z,2.37
2023-02-16T08:56:09.606Z,2.44
2023-02-16T08:57:09.589Z,2.51
2023-02-16T08:58:09.555Z,2.55
2023-02-16T08:59:09.541Z,2.63
2023-02-16T09:00:09.520Z,2.69
2023-02-16T09:01:09.548Z,2.77
2023-02-16T09:02:09.545Z,2.82
2023-02-16T09:03:09.826Z,2.91
2023-02-16T09:04:09.474Z,3.05
2023-02-16T09:05:09.449Z,3.25
2023-02-16T09:06:18.143Z,3.49
2023-02-16T09:07:09.432Z,3.71
2023-02-16T09:08:09.416Z,3.92
2023-02-16T09:09:09.406Z,4.16
2023-02-16T09:10:09.398Z,4.42
2023-02-16T09:11:09.387Z,4.59
2023-02-16T09:12:09.368Z,4.79
2023-02-16T09:13:09.348Z,4.96
2023-02-16T09:14:09.522Z,5.14
2023-02-16T09:15:09.316Z,5.43
2023-02-16T09:16:09.330Z,5.86
2023-02-16T09:17:09.353Z,6.53
2023-02-16T09:18:09.290Z,7.34
2023-02-16T09:20:01.473Z,9.12
2023-02-16T09:21:01.466Z,10.17
2023-02-16T09:22:01.475Z,11.14
2023-02-16T09:23:01.450Z,11.94
2023-02-16T09:24:01.426Z,12.60
2023-02-16T09:25:01.422Z,13.29
2023-02-16T09:26:01.660Z,13.44
2023-02-16T09:27:01.387Z,13.52
2023-02-16T09:28:01.414Z,13.44
2023-02-16T09:29:01.369Z,13.77
2023-02-16T09:30:01.446Z,14.20
2023-02-16T09:31:01.494Z,14.61
2023-02-16T09:32:01.414Z,14.78
2023-02-16T09:33:01.345Z,14.98
2023-02-16T09:34:01.326Z,15.08
2023-02-16T09:35:01.287Z,15.20
2023-02-16T09:36:01.296Z,15.09
2023-02-16T09:37:01.278Z,15.23
2023-02-16T09:38:01.267Z,15.42
2023-02-16T09:39:01.236Z,15.61
2023-02-16T09:40:01.247Z,15.68
2023-02-16T09:41:01.215Z,15.81
2023-02-16T09:42:01.196Z,15.96
2023-02-16T09:43:01.207Z,16.31
2023-02-16T09:44:01.184Z,16.48
2023-02-16T09:45:01.157Z,16.58
2023-02-16T09:46:01.209Z,16.42
2023-02-16T09:47:01.154Z,16.37
2023-02-16T10:04:17.579Z,16.00
2023-02-16T10:05:17.617Z,15.52
2023-02-16T10:06:17.514Z,15.43
2023-02-16T10:07:17.496Z,15.57
2023-02-16T10:08:17.493Z,15.59
2023-02-16T10:09:17.467Z,15.93
2023-02-16T10:10:17.481Z,16.33
2023-02-16T10:11:17.459Z,16.48
2023-02-16T10:12:17.437Z,16.55
2023-02-16T10:13:17.425Z,16.67
2023-02-16T10:14:17.410Z,16.62
2023-02-16T10:15:17.417Z,16.35
2023-02-16T10:16:17.394Z,15.70
2023-02-16T10:17:17.387Z,15.57
2023-02-16T10:18:24.869Z,15.41
2023-02-16T10:19:17.349Z,15.54
2023-02-16T10:20:17.346Z,15.23
2023-02-16T10:21:17.320Z,15.27
2023-02-16T10:22:17.699Z,15.43
2023-02-16T10:23:17.290Z,15.46
2023-02-16T10:24:17.299Z,14.94
2023-02-16T10:25:17.269Z,14.90
2023-02-16T10:26:17.283Z,14.78
2023-02-16T10:27:17.262Z,13.99
2023-02-16T10:28:17.222Z,14.50
2023-02-16T10:29:17.233Z,15.23
2023-02-16T10:30:17.220Z,15.94
2023-02-16T10:31:17.291Z,16.75
2023-02-16T10:32:17.195Z,17.44
2023-02-16T10:33:17.190Z,17.35
2023-02-16T10:34:17.166Z,17.40
2023-02-16T10:35:17.151Z,17.50
2023-02-16T10:36:17.167Z,17.26
2023-02-16T10:37:17.126Z,17.40
2023-02-16T10:38:17.108Z,17.55
2023-02-16T10:39:17.110Z,17.30
2023-02-16T10:40:17.098Z,17.50
2023-02-16T10:41:17.097Z,17.74
2023-02-16T10:42:17.068Z,17.92
2023-02-16T10:43:17.061Z,16.86
2023-02-16T10:44:17.041Z,16.20
2023-02-16T10:45:17.051Z,16.49
2023-02-16T10:46:17.077Z,16.59
2023-02-16T10:47:17.016Z,16.77
2023-02-16T10:48:16.987Z,16.95
2023-02-16T10:49:16.987Z,17.38
2023-02-16T10:50:16.987Z,17.53
2023-02-16T10:51:16.956Z,17.92
2023-02-16T10:52:16.949Z,18.70
2023-02-16T10:53:16.919Z,19.43
2023-02-16T10:54:16.917Z,19.88
2023-02-16T10:55:16.918Z,19.79
2023-02-16T10:56:16.890Z,20.16
2023-02-16T10:57:16.902Z,19.94
2023-02-16T10:58:16.874Z,19.66
2023-02-16T10:59:16.871Z,19.38
2023-02-16T11:00:16.900Z,19.38
2023-02-16T11:01:16.872Z,19.80
2023-02-16T11:02:16.830Z,20.24
2023-02-16T11:03:16.809Z,20.65
2023-02-16T11:04:16.853Z,20.86
2023-02-16T11:05:16.778Z,21.26
2023-02-16T11:06:16.778Z,20.87
2023-02-16T11:07:16.780Z,21.21
2023-02-16T11:08:16.748Z,21.48
2023-02-16T11:09:16.726Z,20.23
2023-02-16T11:10:16.722Z,19.53
2023-02-16T11:11:16.708Z,19.73
2023-02-16T11:12:16.705Z,20.21
2023-02-16T11:13:16.702Z,20.64
2023-02-16T11:14:16.665Z,21.01
2023-02-16T11:15:16.658Z,21.38
2023-02-16T11:16:16.687Z,20.98
2023-02-16T11:17:16.658Z,21.76
2023-02-16T11:18:16.628Z,21.82
2023-02-16T11:19:16.597Z,21.59
2023-02-16T11:20:16.595Z,21.39
2023-02-16T11:21:16.578Z,21.59
2023-02-16T11:22:16.567Z,21.82
2023-02-16T11:23:16.552Z,21.48
2023-02-16T11:24:16.556Z,21.34
2023-02-16T11:25:16.519Z,21.59
2023-02-16T11:26:16.571Z,21.63
2023-02-16T11:27:16.519Z,21.45
2023-02-16T11:28:16.497Z,21.34
2023-02-16T11:29:16.482Z,21.34
2023-02-16T11:30:16.513Z,20.69
2023-02-16T11:31:16.564Z,20.08
2023-02-16T11:32:16.517Z,20.20
2023-02-16T11:33:16.441Z,20.47
2023-02-16T11:34:16.434Z,20.87
2023-02-16T11:35:16.406Z,20.81
2023-02-16T11:36:16.395Z,20.66
2023-02-16T11:37:16.385Z,20.46
2023-02-16T11:38:16.376Z,20.90
2023-02-16T11:39:16.391Z,20.27
2023-02-16T11:40:16.342Z,20.83
2023-02-16T11:41:16.313Z,20.68
2023-02-16T11:42:16.334Z,20.64
2023-02-16T11:43:16.317Z,20.66
2023-02-16T11:44:18.975Z,19.83
2023-02-16T11:45:16.262Z,18.98
2023-02-16T11:46:16.275Z,19.98
2023-02-16T11:47:16.250Z,20.46
2023-02-16T11:48:16.249Z,21.21
2023-02-16T11:49:16.219Z,20.66
2023-02-16T11:50:16.196Z,20.54
2023-02-16T11:51:16.178Z,21.08
2023-02-16T11:52:16.179Z,21.36
2023-02-16T11:53:16.262Z,21.30
2023-02-16T11:54:16.171Z,20.20
2023-02-16T11:55:16.173Z,19.80
2023-02-16T11:56:16.131Z,19.69
2023-02-16T11:57:16.121Z,20.00
2023-02-16T11:58:16.124Z,20.47
2023-02-16T11:59:16.102Z,20.10
2023-02-16T12:00:16.125Z,20.38
2023-02-16T12:01:16.056Z,20.69
2023-02-16T12:02:16.055Z,20.06
2023-02-16T12:03:16.110Z,19.69
2023-02-16T12:04:16.072Z,19.84
2023-02-16T12:05:16.219Z,19.76
2023-02-16T12:06:16.006Z,19.88
2023-02-16T12:07:15.997Z,20.05
2023-02-16T12:08:15.997Z,19.97
2023-02-16T12:09:16.013Z,19.86
2023-02-16T12:10:15.960Z,19.63
2023-02-16T12:11:15.943Z,19.46
2023-02-16T12:12:15.933Z,19.61
2023-02-16T12:13:15.982Z,19.80
2023-02-16T12:14:15.899Z,19.79
2023-02-16T12:15:15.889Z,19.80
2023-02-16T12:16:15.891Z,18.65
2023-02-16T12:17:15.860Z,18.84
2023-02-16T12:18:15.858Z,19.13
2023-02-16T12:19:15.864Z,19.11
2023-02-16T12:20:15.827Z,18.57
2023-02-16T12:21:17.299Z,18.50
2023-02-16T12:22:15.814Z,18.44
2023-02-16T12:23:15.799Z,18.90
2023-02-16T12:24:15.798Z,18.87
2023-02-16T12:25:15.770Z,18.44
2023-02-16T12:26:15.764Z,18.44
2023-02-16T12:27:15.748Z,18.70
2023-02-16T12:28:15.734Z,19.39
2023-02-16T12:29:15.716Z,19.31
2023-02-16T12:30:15.751Z,18.91
2023-02-16T12:31:15.813Z,18.79
2023-02-16T12:32:15.673Z,19.40
2023-02-16T12:33:15.706Z,19.93
2023-02-16T12:34:15.648Z,20.27
2023-02-16T12:35:15.646Z,20.25
2023-02-16T12:36:15.632Z,20.59
2023-02-16T12:37:15.606Z,20.20
2023-02-16T12:38:15.593Z,19.78
2023-02-16T12:39:15.620Z,19.91
2023-02-16T12:40:15.588Z,20.15
2023-02-16T12:41:15.578Z,20.38
2023-02-16T12:42:15.545Z,20.50
2023-02-16T12:43:15.533Z,20.33
2023-02-16T12:44:15.531Z,20.68
2023-02-16T12:45:15.508Z,21.36
2023-02-16T12:46:15.513Z,21.99
2023-02-16T12:47:15.487Z,22.46
2023-02-16T12:48:15.490Z,21.97
2023-02-16T12:49:15.478Z,22.19
2023-02-16T12:50:15.436Z,22.04
2023-02-16T12:51:15.426Z,22.20
2023-02-16T12:52:15.410Z,22.75
2023-02-16T12:53:15.422Z,22.94
2023-02-16T12:54:15.402Z,23.02
2023-02-16T12:55:15.393Z,23.08
2023-02-16T12:56:15.369Z,23.42
2023-02-16T12:57:15.360Z,23.80
2023-02-16T12:58:15.355Z,24.01
2023-02-16T12:59:15.348Z,24.02
2023-02-16T13:00:15.321Z,24.13
2023-02-16T13:01:15.319Z,23.26
2023-02-16T13:02:15.291Z,23.24
2023-02-16T13:03:15.365Z,23.09
2023-02-16T13:04:15.280Z,23.05
2023-02-16T13:05:15.254Z,22.96
2023-02-16T13:06:15.237Z,23.02
2023-02-16T13:07:15.248Z,23.39
2023-02-16T13:08:15.230Z,23.67
2023-02-16T13:09:15.236Z,22.69
2023-02-16T13:10:15.189Z,21.79
2023-02-16T13:11:15.224Z,22.14
2023-02-16T13:12:15.172Z,21.97
2023-02-16T13:13:15.174Z,22.13
2023-02-16T13:14:15.149Z,22.01
2023-02-16T13:15:15.141Z,21.97
2023-02-16T13:16:29.176Z,21.61
2023-02-16T13:17:16.205Z,21.26
2023-02-16T13:18:15.164Z,20.68
2023-02-16T13:19:15.392Z,20.86
2023-02-16T13:20:15.065Z,20.95
2023-02-16T13:21:15.097Z,20.86
2023-02-16T13:22:15.072Z,20.86
2023-02-16T13:23:15.028Z,21.21
2023-02-16T13:24:15.045Z,21.41